Time;durP1;ratioP1;P1;durP2;ratioP2;P2;SDS_P1;SDS_P2;PMS_P1;PMS_P2;Temp;Humidity;BMP_temperature;BMP_pressure;BME280_temperature;BME280_humidity;BME280_pressure;Samples;Min_cycle;Max_cycle;Signal;HPM_P1;HPM_P2
2021/04/23 00:07:24;;;;;;;4.65;2.13;;;11.50;55.40;;;;;;20878157;28;20060;-79
2021/04/23 00:17:26;;;;;;;9.30;2.90;;;11.40;55.30;;;;;;20910989;28;20066;-78
2021/04/23 00:27:27;;;;;;;3.85;2.35;;;11.40;55.40;;;;;;20894104;28;20059;-78
2021/04/23 00:37:29;;;;;;;6.32;3.03;;;11.40;55.50;;;;;;20923827;28;20374;-78
2021/04/23 00:47:30;;;;;;;10.70;3.15;;;11.40;55.60;;;;;;20925662;28;20056;-78
2021/04/23 00:57:31;;;;;;;7.18;2.70;;;11.40;55.70;;;;;;20890189;28;20045;-78
2021/04/23 01:07:31;;;;;;;5.13;2.50;;;11.40;55.70;;;;;;20890655;28;20049;-78
2021/04/23 01:17:32;;;;;;;6.35;2.78;;;11.40;55.80;;;;;;20890167;28;20037;-78
2021/04/23 01:27:33;;;;;;;4.77;2.70;;;11.40;55.90;;;;;;20889592;28;20064;-79
2021/04/23 01:37:33;;;;;;;5.00;2.85;;;11.50;56.00;;;;;;20888614;28;20303;-78
2021/04/23 01:47:34;;;;;;;3.55;2.28;;;11.30;56.00;;;;;;20886860;28;20379;-80
2021/04/23 01:57:35;;;;;;;5.32;2.80;;;11.30;56.00;;;;;;20903334;28;20040;-78
2021/04/23 02:07:36;;;;;;;8.90;2.90;;;11.30;56.20;;;;;;20903103;28;20060;-78
2021/04/23 02:17:37;;;;;;;6.57;2.55;;;11.30;56.20;;;;;;20918589;28;20051;-78
2021/04/23 02:27:40;;;;;;;4.60;2.40;;;11.50;56.40;;;;;;20900339;28;20116;-80
2021/04/23 02:37:40;;;;;;;3.70;2.55;;;11.30;56.30;;;;;;20883938;28;20419;-78
2021/04/23 02:47:45;;;;;;;5.97;3.03;;;11.30;56.40;;;;;;20884116;28;20490;-80
2021/04/23 02:58:19;;;;;;;6.28;3.38;;;11.30;56.50;;;;;;20916512;28;20033;-79
2021/04/23 03:08:20;;;;;;;3.92;2.55;;;11.30;56.70;;;;;;20915069;28;20025;-78
2021/04/23 03:18:23;;;;;;;5.18;2.35;;;11.30;56.70;;;;;;20880883;28;20074;-78
2021/04/23 03:28:24;;;;;;;5.10;2.67;;;11.30;56.70;;;;;;20896773;28;20061;-79
2021/04/23 03:38:26;;;;;;;8.68;3.22;;;11.30;56.80;;;;;;20913866;28;20071;-78
2021/04/23 03:48:27;;;;;;;7.35;2.45;;;11.30;56.80;;;;;;20861740;28;20036;-78
2021/04/23 03:58:28;;;;;;;12.13;2.90;;;11.30;56.90;;;;;;20878360;28;20045;-79
2021/04/23 04:08:29;;;;;;;6.93;2.47;;;11.20;56.90;;;;;;20885950;28;20287;-79
2021/04/23 04:18:31;;;;;;;3.90;2.38;;;11.20;56.90;;;;;;20894624;28;20353;-78
2021/04/23 04:28:33;;;;;;;10.02;3.55;;;11.30;57.10;;;;;;20893820;28;20036;-79
2021/04/23 04:38:34;;;;;;;7.30;2.60;;;11.20;57.00;;;;;;20893569;28;20132;-79
2021/04/23 04:48:36;;;;;;;6.05;2.40;;;11.20;57.10;;;;;;20908857;28;20060;-78
2021/04/23 04:58:37;;;;;;;4.32;2.05;;;11.20;57.10;;;;;;20891183;28;20033;-77
2021/04/23 05:08:38;;;;;;;5.80;2.22;;;11.20;57.20;;;;;;20888942;28;20123;-79
2021/04/23 05:18:39;;;;;;;4.80;2.17;;;11.20;57.20;;;;;;20887655;28;20033;-78
2021/04/23 05:28:39;;;;;;;5.50;2.75;;;11.20;57.30;;;;;;20896000;28;20353;-83
2021/04/23 05:38:40;;;;;;;9.57;2.55;;;11.20;57.40;;;;;;20854901;28;20032;-78
2021/04/23 05:48:42;;;;;;;6.63;2.22;;;11.20;57.40;;;;;;20917491;28;20029;-78
2021/04/23 05:58:43;;;;;;;7.47;2.17;;;11.20;57.40;;;;;;20908037;28;20100;-78
2021/04/23 06:08:45;;;;;;;8.00;2.50;;;11.20;57.50;;;;;;20890528;28;20065;-78
2021/04/23 06:18:45;;;;;;;6.25;2.67;;;11.20;57.50;;;;;;20926574;28;20033;-86
2021/04/23 06:28:51;;;;;;;4.50;3.03;;;11.20;58.20;;;;;;20898035;28;20479;-79
2021/04/23 06:38:52;;;;;;;4.90;1.88;;;11.20;57.60;;;;;;20949514;28;20056;-77
2021/04/23 06:48:52;;;;;;;5.57;2.28;;;11.20;57.60;;;;;;20981159;28;20036;-77
2021/04/23 06:58:54;;;;;;;5.43;2.03;;;11.20;57.60;;;;;;20945743;28;20055;-79
2021/04/23 07:08:55;;;;;;;8.52;2.38;;;11.10;57.50;;;;;;20902017;28;20321;-81
2021/04/23 07:19:00;;;;;;;5.28;1.70;;;11.10;57.50;;;;;;20912948;28;20032;-81
2021/04/23 07:29:01;;;;;;;3.88;2.60;;;11.10;57.50;;;;;;20865551;28;20396;-77
2021/04/23 07:39:04;;;;;;;6.90;2.00;;;11.10;57.40;;;;;;20861451;28;20040;-80
2021/04/23 07:49:04;;;;;;;3.50;1.60;;;11.20;57.40;;;;;;20951585;28;20032;-81
2021/04/23 07:59:05;;;;;;;4.90;1.73;;;11.20;57.30;;;;;;20879900;28;20048;-79
2021/04/23 08:09:06;;;;;;;7.80;2.08;;;11.20;57.20;;;;;;20946115;28;20049;-80
2021/04/23 08:19:07;;;;;;;3.60;1.85;;;11.20;57.00;;;;;;20943037;28;20101;-79
2021/04/23 08:29:08;;;;;;;3.45;1.73;;;11.20;56.90;;;;;;20958946;28;20123;-79
2021/04/23 08:39:10;;;;;;;4.70;1.98;;;11.20;56.70;;;;;;21349218;22;20045;-75
2021/04/23 08:49:16;;;;;;;2.88;1.48;;;11.20;56.60;;;;;;20910091;28;20037;-75
2021/04/23 08:59:16;;;;;;;4.85;1.70;;;11.30;56.50;;;;;;20893201;28;20120;-75
2021/04/23 09:09:17;;;;;;;2.37;1.73;;;11.20;56.40;;;;;;20864286;28;20060;-75
2021/04/23 09:19:22;;;;;;;2.95;1.33;;;11.30;56.30;;;;;;20814124;28;20303;-74
2021/04/23 09:29:26;;;;;;;3.13;1.40;;;11.30;56.20;;;;;;20851421;28;20110;-76
2021/04/23 09:39:27;;;;;;;4.22;1.45;;;11.30;56.10;;;;;;20808797;28;20102;-76
2021/04/23 09:49:27;;;;;;;3.15;1.50;;;11.30;56.00;;;;;;20886988;28;20032;-76
2021/04/23 09:59:30;;;;;;;5.28;1.45;;;11.30;55.90;;;;;;20827019;28;20040;-80
2021/04/23 10:09:30;;;;;;;11.52;1.52;;;11.30;55.80;;;;;;20849361;28;20071;-76
2021/04/23 10:19:31;;;;;;;7.85;1.65;;;11.40;55.70;;;;;;20868828;28;20155;-79
2021/04/23 10:29:32;;;;;;;5.00;2.10;;;11.30;55.40;;;;;;20857409;28;20029;-77
2021/04/23 10:39:36;;;;;;;9.02;2.63;;;11.30;55.30;;;;;;20857413;28;20044;-79
2021/04/23 10:50:06;;;;;;;4.97;1.60;;;11.40;55.10;;;;;;20830017;28;20040;-70
2021/04/23 11:00:30;;;;;;;4.72;1.70;;;11.40;54.70;;;;;;20882655;28;20037;-77
2021/04/23 11:10:31;;;;;;;11.93;2.58;;;11.40;54.20;;;;;;20902509;28;20437;-78
2021/04/23 11:20:32;;;;;;;7.40;2.60;;;11.40;54.60;;;;;;20850809;28;20037;-80
2021/04/23 11:31:07;;;;;;;5.95;1.20;;;11.40;53.60;;;;;;20866805;28;20459;-79
2021/04/23 11:41:11;;;;;;;5.70;1.20;;;11.40;53.30;;;;;;20810630;28;20053;-79
2021/04/23 11:51:12;;;;;;;8.75;2.38;;;11.40;53.30;;;;;;20847037;28;20067;-78
2021/04/23 12:01:12;;;;;;;6.63;1.77;;;11.40;53.40;;;;;;20853067;28;20376;-78
2021/04/23 12:11:13;;;;;;;3.55;1.42;;;11.40;53.40;;;;;;20846739;28;20294;-77
2021/04/23 12:21:14;;;;;;;2.73;1.13;;;11.40;53.70;;;;;;20903234;28;20098;-77
2021/04/23 12:31:22;;;;;;;4.65;1.38;;;11.40;53.80;;;;;;20898277;28;20705;-77
2021/04/23 12:41:24;;;;;;;7.60;1.65;;;11.50;54.00;;;;;;20883496;28;20052;-78
2021/04/23 12:51:25;;;;;;;4.90;1.63;;;11.60;53.60;;;;;;20882864;28;20079;-78
2021/04/23 13:01:26;;;;;;;12.18;1.85;;;11.60;52.80;;;;;;20880908;28;20082;-77
2021/04/23 13:11:26;;;;;;;4.93;1.48;;;11.60;52.70;;;;;;20866613;28;20063;-76
2021/04/23 13:21:30;;;;;;;5.65;1.50;;;11.70;52.40;;;;;;20879985;28;20037;-77
2021/04/23 13:31:32;;;;;;;4.18;1.60;;;11.70;52.30;;;;;;20847110;28;20120;-77
2021/04/23 13:41:40;;;;;;;10.75;2.15;;;11.80;52.30;;;;;;20845150;28;20044;-79
2021/04/23 13:51:45;;;;;;;4.80;1.27;;;11.80;51.90;;;;;;20879921;28;20048;-80
2021/04/23 14:02:03;;;;;;;8.15;1.42;;;11.90;51.80;;;;;;20895833;28;20407;-76
2021/04/23 14:12:09;;;;;;;4.20;1.65;;;11.90;51.70;;;;;;20879588;28;20033;-77
2021/04/23 14:22:10;;;;;;;5.17;1.47;;;12.00;51.30;;;;;;20875112;28;20041;-77
2021/04/23 14:32:10;;;;;;;7.28;1.38;;;12.10;51.10;;;;;;20848953;28;20033;-76
2021/04/23 14:42:11;;;;;;;3.85;1.75;;;12.20;51.00;;;;;;20779313;28;20056;-76
2021/04/23 14:52:12;;;;;;;5.93;1.23;;;12.30;51.00;;;;;;20863768;28;20106;-78
2021/04/23 15:02:12;;;;;;;3.55;1.08;;;12.40;51.10;;;;;;20854443;28;20043;-77
2021/04/23 15:12:13;;;;;;;6.67;1.20;;;12.50;50.90;;;;;;20856364;28;20035;-77
2021/04/23 15:22:14;;;;;;;3.10;1.40;;;12.60;50.90;;;;;;20871238;28;20382;-77
2021/04/23 15:32:14;;;;;;;4.50;1.08;;;12.60;51.20;;;;;;20855516;28;20037;-77
2021/04/23 15:42:15;;;;;;;8.98;2.30;;;12.60;51.60;;;;;;20838688;28;20056;-78
2021/04/23 15:52:16;;;;;;;4.78;2.63;;;12.60;51.80;;;;;;20871474;28;20076;-77
2021/04/23 16:02:16;;;;;;;4.45;1.67;;;12.70;51.80;;;;;;20869997;28;20037;-79
2021/04/23 16:12:17;;;;;;;3.72;1.25;;;12.70;51.60;;;;;;20870263;28;20083;-74
2021/04/23 16:22:18;;;;;;;6.65;1.42;;;12.80;51.50;;;;;;20886243;28;20075;-76
2021/04/23 16:32:18;;;;;;;3.40;1.10;;;12.80;51.50;;;;;;20869732;28;20483;-77
2021/04/23 16:42:19;;;;;;;6.83;1.53;;;12.90;51.70;;;;;;20869573;28;20098;-76
2021/04/23 16:52:19;;;;;;;3.50;1.30;;;12.90;51.80;;;;;;20851886;28;20276;-73
2021/04/23 17:02:20;;;;;;;2.35;1.20;;;12.90;52.20;;;;;;20851968;28;20041;-75
2021/04/23 17:12:21;;;;;;;3.53;0.82;;;12.80;52.20;;;;;;20853367;28;20044;-74
2021/04/23 17:22:21;;;;;;;7.77;1.60;;;12.90;52.30;;;;;;20881651;28;20029;-78
2021/04/23 17:32:23;;;;;;;4.70;1.65;;;12.80;52.20;;;;;;20861121;28;21075;-76
2021/04/23 17:42:25;;;;;;;5.93;1.55;;;12.70;52.30;;;;;;20879284;28;20499;-74
2021/04/23 17:52:25;;;;;;;3.25;1.38;;;12.70;52.50;;;;;;20827827;28;20032;-76
2021/04/23 18:02:26;;;;;;;4.47;1.30;;;12.60;52.60;;;;;;20909372;28;20543;-75
2021/04/23 18:12:27;;;;;;;3.78;1.50;;;12.60;52.80;;;;;;20960499;28;20471;-76
2021/04/23 18:22:28;;;;;;;3.95;1.48;;;12.50;52.90;;;;;;20926274;28;20033;-75
2021/04/23 18:32:28;;;;;;;6.63;1.13;;;12.50;53.10;;;;;;20843564;28;20102;-76
2021/04/23 18:42:29;;;;;;;6.60;1.60;;;12.40;53.20;;;;;;20857317;28;20363;-75
2021/04/23 18:52:30;;;;;;;4.75;1.48;;;12.40;53.40;;;;;;20841054;28;20033;-76
2021/04/23 19:02:30;;;;;;;6.97;1.55;;;12.30;53.50;;;;;;20889599;28;20120;-75
2021/04/23 19:12:31;;;;;;;9.77;1.70;;;12.20;53.60;;;;;;20853228;28;20045;-73
2021/04/23 19:22:32;;;;;;;3.60;1.88;;;12.20;53.70;;;;;;20835406;28;20845;-77
2021/04/23 19:32:33;;;;;;;8.73;1.98;;;12.20;53.80;;;;;;20784022;28;20040;-77
2021/04/23 19:42:34;;;;;;;3.10;1.60;;;12.20;53.80;;;;;;20854214;28;20506;-77
2021/04/23 19:52:36;;;;;;;3.58;1.55;;;12.30;53.90;;;;;;20886937;28;20029;-77
2021/04/23 20:02:36;;;;;;;7.05;2.15;;;12.20;53.90;;;;;;20886998;28;20039;-77
2021/04/23 20:12:37;;;;;;;3.07;1.40;;;12.20;54.00;;;;;;20887816;28;20029;-77
2021/04/23 20:22:38;;;;;;;6.13;1.40;;;12.10;54.00;;;;;;20886043;28;21090;-77
2021/04/23 20:32:39;;;;;;;3.58;1.30;;;12.10;54.60;;;;;;20853060;28;20295;-77
2021/04/23 20:42:40;;;;;;;2.70;1.45;;;12.10;54.00;;;;;;20865892;28;20045;-76
2021/04/23 20:52:40;;;;;;;2.42;1.25;;;12.10;54.10;;;;;;20862863;28;20032;-77
2021/04/23 21:02:43;;;;;;;8.18;1.63;;;12.10;54.10;;;;;;20867905;28;20119;-76
2021/04/23 21:12:43;;;;;;;4.03;1.63;;;12.10;54.10;;;;;;20883587;28;20037;-76
2021/04/23 21:22:44;;;;;;;6.25;1.52;;;12.10;54.20;;;;;;20882397;28;20032;-77
2021/04/23 21:32:45;;;;;;;3.65;1.58;;;12.00;54.20;;;;;;20915926;28;20040;-76
2021/04/23 21:42:45;;;;;;;3.65;1.13;;;12.10;54.30;;;;;;20864893;28;20128;-77
2021/04/23 21:52:46;;;;;;;4.25;1.67;;;12.00;54.20;;;;;;20863971;28;20033;-77
2021/04/23 22:02:46;;;;;;;4.72;2.28;;;12.00;54.20;;;;;;20878209;28;20127;-77
2021/04/23 22:12:47;;;;;;;5.20;1.65;;;12.00;54.10;;;;;;20846078;28;20442;-77
2021/04/23 22:22:47;;;;;;;7.82;3.35;;;12.00;54.20;;;;;;20894176;28;20041;-76
2021/04/23 22:32:48;;;;;;;3.90;1.60;;;11.90;54.10;;;;;;20860674;28;20112;-77
2021/04/23 22:42:49;;;;;;;2.40;1.43;;;12.00;54.10;;;;;;20844056;28;20048;-76
2021/04/23 22:52:49;;;;;;;4.38;2.63;;;11.90;54.10;;;;;;20875485;28;20366;-78
2021/04/23 23:02:50;;;;;;;4.32;2.00;;;11.90;54.20;;;;;;20874585;28;20039;-76
2021/04/23 23:12:51;;;;;;;4.50;1.88;;;11.90;54.10;;;;;;20873564;28;20110;-76
2021/04/23 23:22:52;;;;;;;4.53;2.10;;;11.90;54.20;;;;;;20857086;28;20033;-76
2021/04/23 23:32:52;;;;;;;3.75;1.55;;;11.90;54.10;;;;;;20855104;28;20083;-76
2021/04/23 23:42:53;;;;;;;4.10;1.83;;;11.90;54.20;;;;;;20871538;28;20045;-77
2021/04/23 23:52:53;;;;;;;3.78;1.73;;;11.90;54.20;;;;;;20887797;28;20029;-76
